Time;durP1;ratioP1;P1;durP2;ratioP2;P2;SDS_P1;SDS_P2;PMS_P1;PMS_P2;Temp;Humidity;BMP_temperature;BMP_pressure;BME280_temperature;BME280_humidity;BME280_pressure;Samples;Min_cycle;Max_cycle;Signal;HPM_P1;HPM_P2
2021/12/26 00:01:34;;;;;;;2.55;1.15;;;;;;;-1.20;73.86;100631.38;5071439;28;20090;-74
2021/12/26 00:04:03;;;;;;;2.15;1.48;;;;;;;-1.12;73.26;100631.97;5070230;28;20041;-73
2021/12/26 00:06:29;;;;;;;0.77;0.75;;;;;;;-1.14;72.22;100628.59;5067131;28;20103;-75
2021/12/26 00:08:59;;;;;;;1.13;0.85;;;;;;;-1.11;73.30;100625.06;5066079;28;20124;-72
2021/12/26 00:13:52;;;;;;;2.38;1.40;;;;;;;-1.11;72.88;100631.09;5108694;27;20460;-73
2021/12/26 00:16:21;;;;;;;;;;;;;;;-1.12;73.53;100631.97;5086962;28;20036;-74
2021/12/26 00:18:49;;;;;;;2.90;1.38;;;;;;;-1.11;73.56;100625.94;5088737;28;19963;-74
2021/12/26 00:21:19;;;;;;;2.10;1.40;;;;;;;-1.12;73.74;100626.81;5088122;28;20051;-71
2021/12/26 00:23:45;;;;;;;3.17;1.23;;;;;;;-1.11;72.67;100628.50;5087758;28;20141;-72
2021/12/26 00:26:12;;;;;;;0.80;0.57;;;;;;;-1.06;72.99;100629.19;5097623;28;20055;-71
2021/12/26 00:28:39;;;;;;;0.98;0.70;;;;;;;-1.07;73.54;100627.50;5098223;28;20040;-71
2021/12/26 00:31:08;;;;;;;2.17;1.13;;;;;;;-1.08;73.20;100615.50;5084165;28;20055;-74
2021/12/26 00:33:35;;;;;;;0.85;0.75;;;;;;;-1.07;73.15;100616.34;5089271;28;20050;-73
2021/12/26 00:36:02;;;;;;;2.97;1.77;;;;;;;-1.10;73.30;100617.28;5088022;28;20047;-73
2021/12/26 00:38:30;;;;;;;2.67;1.58;;;;;;;-1.11;72.88;100618.19;5081452;28;20055;-73
2021/12/26 00:40:57;;;;;;;2.22;1.45;;;;;;;-1.11;73.72;100612.19;5085999;28;20050;-72
2021/12/26 00:43:24;;;;;;;0.85;0.82;;;;;;;-1.13;74.44;100608.81;5080644;28;20046;-73
2021/12/26 00:45:50;;;;;;;3.63;1.80;;;;;;;-1.12;74.32;100606.19;5084629;28;20124;-73
2021/12/26 00:48:21;;;;;;;1.88;1.60;;;;;;;-1.15;73.70;100603.72;5090487;28;20465;-72
2021/12/26 00:50:48;;;;;;;6.28;1.40;;;;;;;-1.11;74.09;100601.88;5082316;28;20104;-72
2021/12/26 00:53:15;;;;;;;2.05;1.35;;;;;;;-1.07;73.35;100595.75;5087267;28;20046;-74
2021/12/26 00:55:42;;;;;;;2.55;1.88;;;;;;;-1.11;74.05;100597.59;5082596;28;20047;-74
2021/12/26 00:58:09;;;;;;;2.00;1.17;;;;;;;-1.13;74.04;100601.94;5088953;28;20044;-73
2021/12/26 01:00:38;;;;;;;3.67;1.95;;;;;;;-1.11;73.06;100601.88;5087272;28;20047;-73
2021/12/26 01:03:06;;;;;;;1.63;0.80;;;;;;;-1.15;74.09;100597.75;5088601;28;20040;-73
2021/12/26 01:05:36;;;;;;;1.38;1.20;;;;;;;-1.14;74.47;100597.69;5083041;28;20572;-72
2021/12/26 01:08:04;;;;;;;1.15;0.93;;;;;;;-1.06;75.34;100605.97;5086867;28;20051;-73
2021/12/26 01:10:34;;;;;;;1.65;0.95;;;;;;;-1.08;74.15;100605.19;5089191;28;20055;-72
2021/12/26 01:13:09;;;;;;;2.15;1.25;;;;;;;-1.06;74.30;100607.69;5087264;28;20145;-72
2021/12/26 01:15:36;;;;;;;9.70;2.22;;;;;;;-1.05;74.66;100605.09;5083685;28;20051;-71
2021/12/26 01:18:02;;;;;;;31.40;2.25;;;;;;;-1.05;75.19;100604.22;5087353;28;20089;-72
2021/12/26 01:20:43;;;;;;;2.88;1.33;;;;;;;-1.08;74.78;100605.19;5087174;28;20039;-73
2021/12/26 01:23:15;;;;;;;2.92;1.42;;;;;;;-1.07;73.68;100604.28;5084042;28;20044;-73
2021/12/26 01:25:42;;;;;;;1.65;1.50;;;;;;;-1.04;74.46;100611.94;5075496;28;20055;-72
2021/12/26 01:28:09;;;;;;;1.13;0.90;;;;;;;-1.04;75.91;100613.66;5092698;28;20055;-72
2021/12/26 01:30:38;;;;;;;2.47;1.58;;;;;;;-1.04;73.84;100611.94;5074070;28;20985;-74
2021/12/26 01:33:06;;;;;;;1.52;1.10;;;;;;;-1.06;73.73;100608.56;5072310;28;20040;-72
2021/12/26 01:35:34;;;;;;;2.25;1.70;;;;;;;-1.06;74.21;100618.00;5088476;27;20036;-70
2021/12/26 01:38:16;;;;;;;2.15;1.35;;;;;;;-1.03;74.47;100608.47;5083429;27;20040;-74
2021/12/26 01:40:47;;;;;;;0.82;0.80;;;;;;;-1.04;74.76;100609.34;5078500;28;20122;-72
2021/12/26 01:43:14;;;;;;;1.35;0.80;;;;;;;-1.05;73.37;100605.09;5090144;27;20486;-72
2021/12/26 01:45:42;;;;;;;0.60;0.60;;;;;;;-1.00;75.29;100616.06;5118932;27;20074;-72
2021/12/26 01:48:09;;;;;;;1.00;0.77;;;;;;;-0.99;75.60;100615.19;5126179;27;20154;-71
2021/12/26 01:50:37;;;;;;;4.10;1.15;;;;;;;-0.99;74.85;100615.19;5120436;27;20066;-71
2021/12/26 01:53:05;;;;;;;1.15;0.82;;;;;;;-0.98;74.56;100609.13;5118250;27;20047;-73
2021/12/26 01:55:40;;;;;;;1.58;1.23;;;;;;;-0.99;74.39;100615.19;5117738;27;20032;-73
2021/12/26 01:58:09;;;;;;;2.25;1.20;;;;;;;-0.96;75.38;100603.91;5097952;27;20035;-72
2021/12/26 02:00:37;;;;;;;2.50;1.20;;;;;;;-0.97;75.61;100612.53;5114198;27;20036;-71
2021/12/26 02:03:04;;;;;;;1.58;1.17;;;;;;;-0.99;75.29;100610.03;5115985;27;20043;-73
2021/12/26 02:05:31;;;;;;;2.20;1.35;;;;;;;-0.97;75.19;100605.66;5113635;27;20112;-71
2021/12/26 02:07:59;;;;;;;1.42;1.17;;;;;;;-1.00;74.93;100605.75;5113754;27;20067;-71
2021/12/26 02:10:26;;;;;;;1.02;0.85;;;;;;;-1.00;75.22;100604.94;5092456;27;20044;-71
2021/12/26 02:12:53;;;;;;;2.78;1.42;;;;;;;-1.00;74.93;100598.03;5113424;27;20150;-74
2021/12/26 02:15:20;;;;;;;4.05;1.80;;;;;;;-1.04;74.24;100599.06;5118280;27;20047;-71
2021/12/26 02:17:48;;;;;;;1.40;1.25;;;;;;;-1.10;75.24;100585.53;5114904;27;20039;-73
2021/12/26 02:20:23;;;;;;;2.28;0.95;;;;;;;-1.09;73.76;100590.63;5115441;27;20058;-72
2021/12/26 02:22:56;;;;;;;1.27;0.80;;;;;;;-1.10;75.08;100583.78;5115370;27;20043;-72
2021/12/26 02:27:30;;;;;;;1.30;0.85;;;;;;;-1.11;74.86;100578.69;5096748;27;20062;-71
2021/12/26 02:28:18;;;;;;;2.50;1.60;;;;;;;-1.11;75.04;100576.09;5117851;27;20047;-71
2021/12/26 02:30:45;;;;;;;7.05;1.15;;;;;;;-1.11;74.19;100579.53;5122015;27;20049;-71
2021/12/26 02:33:12;;;;;;;1.13;1.02;;;;;;;-1.13;74.97;100576.16;5112704;27;20314;-71
2021/12/26 02:35:41;;;;;;;4.20;1.60;;;;;;;-1.14;75.06;100578.78;5132324;27;20046;-75
2021/12/26 02:38:09;;;;;;;2.25;1.08;;;;;;;-1.15;75.96;100575.38;5129487;27;20050;-72
2021/12/26 02:40:36;;;;;;;0.75;0.73;;;;;;;-1.14;75.16;100579.63;5127586;27;20052;-73
2021/12/26 02:43:03;;;;;;;1.30;1.13;;;;;;;-1.14;75.05;100579.63;5120254;27;20053;-72
2021/12/26 02:45:31;;;;;;;2.65;1.52;;;;;;;-1.12;75.07;100577.00;5096265;27;20031;-72
2021/12/26 02:47:58;;;;;;;1.48;1.17;;;;;;;-1.13;74.65;100581.31;5113297;27;20068;-72
2021/12/26 02:50:27;;;;;;;1.70;1.35;;;;;;;-1.14;75.33;100584.78;5112365;27;20031;-72
2021/12/26 02:52:56;;;;;;;1.40;1.13;;;;;;;-1.11;74.29;100582.13;5114708;27;20134;-72
2021/12/26 02:55:24;;;;;;;1.20;1.10;;;;;;;-1.13;76.25;100581.31;5110472;27;20043;-72
2021/12/26 02:57:52;;;;;;;2.15;1.35;;;;;;;-1.08;74.61;100583.75;5105842;27;20038;-73
2021/12/26 03:00:21;;;;;;;2.00;1.33;;;;;;;-1.14;75.43;100589.94;5108969;27;20047;-74
2021/12/26 03:02:50;;;;;;;1.75;1.05;;;;;;;-1.14;74.49;100574.47;5111839;27;20031;-72
2021/12/26 03:05:19;;;;;;;1.05;0.75;;;;;;;-1.16;73.78;100580.59;5111126;27;20480;-71
2021/12/26 03:07:47;;;;;;;1.15;1.05;;;;;;;-1.15;74.73;100571.97;5113301;27;20062;-73
2021/12/26 03:10:21;;;;;;;0.80;0.73;;;;;;;-1.14;75.50;100571.03;5104946;27;20039;-72
2021/12/26 03:12:49;;;;;;;3.30;1.25;;;;;;;-1.12;74.72;100577.84;5107316;27;20054;-72
2021/12/26 03:15:16;;;;;;;1.40;0.80;;;;;;;-1.10;74.70;100573.47;5110418;27;20042;-77
2021/12/26 03:17:42;;;;;;;4.97;1.23;;;;;;;-1.12;74.30;100577.84;5114492;27;20080;-73
2021/12/26 03:20:10;;;;;;;2.92;1.48;;;;;;;-1.14;75.62;100579.63;5113446;27;20039;-72
2021/12/26 03:22:37;;;;;;;1.40;1.15;;;;;;;-1.15;74.79;100580.53;5116963;27;20067;-72
2021/12/26 03:25:04;;;;;;;1.95;1.48;;;;;;;-1.12;75.15;100583.00;5095017;27;20141;-73
2021/12/26 03:27:32;;;;;;;0.90;0.73;;;;;;;-1.13;75.80;100576.16;5112959;27;20039;-73
2021/12/26 03:29:59;;;;;;;1.15;1.08;;;;;;;-1.11;75.28;100587.28;5109634;27;20130;-73
2021/12/26 03:32:26;;;;;;;1.23;1.00;;;;;;;-1.12;74.99;100580.44;5095746;27;20039;-73
2021/12/26 03:34:53;;;;;;;6.07;1.73;;;;;;;-1.14;74.38;100579.63;5116417;27;20056;-72
2021/12/26 03:40:47;;;;;;;2.55;1.20;;;;;;;-1.14;75.64;100569.31;5061414;27;1206681;-73
2021/12/26 03:43:21;;;;;;;5.28;0.80;;;;;;;-1.13;75.02;100570.16;5083405;28;20050;-74
2021/12/26 03:45:49;;;;;;;1.20;1.10;;;;;;;-1.12;74.90;100567.53;5090770;28;20088;-75
2021/12/26 03:48:17;;;;;;;0.75;0.68;;;;;;;-1.15;74.75;100559.91;5068323;28;20040;-73
2021/12/26 03:50:44;;;;;;;2.42;1.45;;;;;;;-1.18;74.81;100561.75;5092466;28;20054;-73
2021/12/26 03:53:12;;;;;;;0.60;0.52;;;;;;;-1.18;76.03;100552.28;5081959;28;20048;-73
2021/12/26 03:55:39;;;;;;;1.88;1.55;;;;;;;-1.16;75.84;100560.81;5084795;28;20098;-74
2021/12/26 03:58:09;;;;;;;1.33;1.05;;;;;;;-1.12;75.88;100551.22;5079414;28;20040;-73
2021/12/26 04:00:37;;;;;;;1.00;0.90;;;;;;;-1.12;76.27;100552.09;5078721;28;20044;-74
2021/12/26 04:03:04;;;;;;;1.70;1.27;;;;;;;-1.10;76.31;100550.28;5064898;28;20087;-73
2021/12/26 04:05:31;;;;;;;24.20;2.03;;;;;;;-1.08;76.45;100545.09;5077977;28;20044;-73
2021/12/26 04:07:57;;;;;;;3.33;1.63;;;;;;;-1.15;76.41;100548.78;5083525;28;20089;-73
2021/12/26 04:10:24;;;;;;;2.92;0.90;;;;;;;-1.15;75.62;100547.03;5058879;28;20046;-72
2021/12/26 04:12:53;;;;;;;2.95;0.95;;;;;;;-1.15;76.97;100546.19;5082716;28;20064;-73
2021/12/26 04:15:23;;;;;;;2.90;1.27;;;;;;;-1.19;77.22;100552.34;5075360;28;20137;-73
2021/12/26 04:17:51;;;;;;;1.70;1.60;;;;;;;-1.17;78.40;100546.22;5081056;28;20047;-74
2021/12/26 04:20:18;;;;;;;2.10;1.67;;;;;;;-1.19;78.60;100553.16;5076214;28;20059;-73
2021/12/26 04:22:45;;;;;;;1.85;1.13;;;;;;;-1.20;77.44;100550.66;5078552;28;20044;-73
2021/12/26 04:25:11;;;;;;;1.30;1.02;;;;;;;-1.17;78.26;100551.38;5076280;28;20093;-74
2021/12/26 04:27:38;;;;;;;1.48;1.20;;;;;;;-1.15;76.69;100546.19;5077662;28;20117;-77
2021/12/26 04:30:07;;;;;;;0.98;0.77;;;;;;;-1.16;77.64;100540.19;5077065;28;20560;-74
2021/12/26 04:32:35;;;;;;;1.48;0.90;;;;;;;-1.18;78.15;100541.13;5080072;28;20109;-73
2021/12/26 04:38:14;;;;;;;4.90;1.85;;;;;;;-1.25;78.49;100535.34;5083568;27;20394;-74
2021/12/26 04:40:51;;;;;;;1.42;1.23;;;;;;;-1.27;77.57;100531.97;5093056;28;20726;-75
2021/12/26 04:43:19;;;;;;;0.90;0.80;;;;;;;-1.31;79.42;100538.16;5093991;28;20043;-74
2021/12/26 04:45:46;;;;;;;1.27;0.98;;;;;;;-1.36;78.59;100529.75;5107962;27;20361;-73
2021/12/26 04:48:13;;;;;;;1.77;1.48;;;;;;;-1.44;78.76;100528.31;5112632;27;20130;-72
2021/12/26 04:50:39;;;;;;;1.17;0.90;;;;;;;-1.49;80.11;100531.03;5108365;27;20034;-72
2021/12/26 04:53:06;;;;;;;1.70;1.00;;;;;;;-1.52;79.21;100528.56;5110713;27;20047;-74
2021/12/26 04:55:34;;;;;;;1.10;0.75;;;;;;;-1.62;79.75;100526.34;5113230;27;20036;-75
2021/12/26 04:58:01;;;;;;;1.55;0.90;;;;;;;-1.70;80.56;100524.94;5108274;27;20050;-74
2021/12/26 05:00:30;;;;;;;0.85;0.63;;;;;;;-1.67;81.17;100535.97;5111175;27;20123;-76
2021/12/26 05:02:58;;;;;;;1.45;1.10;;;;;;;-1.80;80.71;100526.13;5109804;27;20047;-73
2021/12/26 05:05:26;;;;;;;1.27;0.77;;;;;;;-1.82;81.64;100530.47;5111382;27;20047;-75
2021/12/26 05:07:54;;;;;;;14.98;1.88;;;;;;;-1.89;82.00;100518.72;5109629;27;20047;-73
2021/12/26 05:10:21;;;;;;;1.35;1.25;;;;;;;-1.89;82.17;100529.88;5120827;27;20035;-73
2021/12/26 05:12:49;;;;;;;1.20;0.88;;;;;;;-1.86;81.89;100526.34;5124651;27;20039;-73
2021/12/26 05:15:16;;;;;;;1.42;1.20;;;;;;;-1.95;82.61;100521.50;5126256;27;20043;-74
2021/12/26 05:17:43;;;;;;;2.53;1.38;;;;;;;-2.06;82.87;100520.97;5126387;27;20044;-73
2021/12/26 05:20:11;;;;;;;2.65;1.42;;;;;;;-2.08;83.65;100526.19;5105708;27;20055;-72
2021/12/26 05:22:40;;;;;;;1.65;0.73;;;;;;;-2.09;82.83;100526.22;5112869;27;20047;-73
2021/12/26 05:25:08;;;;;;;2.72;1.55;;;;;;;-2.05;82.52;100522.66;5112523;27;20130;-71
2021/12/26 05:27:35;;;;;;;1.67;1.08;;;;;;;-2.13;82.66;100524.63;5109651;27;20318;-73
2021/12/26 05:32:44;;;;;;;1.50;1.27;;;;;;;-2.10;82.31;100519.41;5096617;27;20415;-74
2021/12/26 05:35:13;;;;;;;10.10;1.17;;;;;;;-2.11;81.46;100517.72;5090495;28;20040;-72
2021/12/26 05:37:41;;;;;;;1.80;1.17;;;;;;;-2.15;81.82;100522.13;5094378;28;20048;-71
2021/12/26 05:40:09;;;;;;;1.08;0.90;;;;;;;-2.19;82.52;100520.53;5095421;28;20039;-75
2021/12/26 05:42:36;;;;;;;0.82;0.77;;;;;;;-2.14;81.27;100523.81;5098679;28;20050;-71
2021/12/26 05:45:04;;;;;;;1.05;0.85;;;;;;;-2.19;80.75;100514.56;5095157;28;20036;-71
2021/12/26 05:47:32;;;;;;;1.00;0.93;;;;;;;-2.24;81.60;100511.25;5088643;28;20047;-70
2021/12/26 05:50:01;;;;;;;0.70;0.50;;;;;;;-2.32;81.65;100508.09;5088420;28;20495;-71
2021/12/26 05:52:27;;;;;;;2.50;1.52;;;;;;;-2.34;82.70;100510.72;5090398;28;20064;-70
2021/12/26 05:54:54;;;;;;;1.80;1.33;;;;;;;-2.24;81.49;100503.53;5089843;28;20043;-71
2021/12/26 05:57:21;;;;;;;0.63;0.63;;;;;;;-2.30;82.61;100502.00;5088693;28;20036;-74
2021/12/26 05:59:47;;;;;;;0.95;0.85;;;;;;;-2.28;82.33;100500.22;5079711;28;20124;-76
2021/12/26 06:02:14;;;;;;;1.75;1.65;;;;;;;-2.39;82.98;100500.63;5071174;28;20080;-68
2021/12/26 06:04:41;;;;;;;2.03;1.40;;;;;;;-2.42;83.15;100506.69;5081706;28;20044;-72
2021/12/26 06:07:09;;;;;;;1.80;1.02;;;;;;;-2.35;83.46;100508.19;5098147;28;21280;-72
2021/12/26 06:09:35;;;;;;;1.02;0.93;;;;;;;-2.42;84.46;100504.09;5084530;28;20046;-70
2021/12/26 06:12:02;;;;;;;1.17;0.93;;;;;;;-2.44;84.94;100505.91;5090790;28;20048;-72
2021/12/26 06:14:29;;;;;;;2.25;1.00;;;;;;;-2.39;84.76;100506.59;5086110;28;20114;-71
2021/12/26 06:16:55;;;;;;;3.85;2.33;;;;;;;-2.42;84.87;100505.84;5067555;28;20052;-73
2021/12/26 06:19:22;;;;;;;0.68;0.65;;;;;;;-2.40;84.97;100514.38;5084459;28;20050;-73
2021/12/26 06:21:48;;;;;;;2.05;1.48;;;;;;;-2.47;84.87;100507.72;5091749;28;20039;-73
2021/12/26 06:24:16;;;;;;;1.40;0.95;;;;;;;-2.48;85.18;100509.44;5073541;28;20371;-73
2021/12/26 06:26:46;;;;;;;1.65;1.15;;;;;;;-2.44;85.05;100510.19;5073193;28;20443;-72
2021/12/26 06:29:13;;;;;;;0.77;0.77;;;;;;;-2.44;85.26;100511.06;5073392;28;20063;-72
2021/12/26 06:31:39;;;;;;;1.13;1.02;;;;;;;-2.42;84.93;100506.69;5091059;28;20181;-72
2021/12/26 06:34:06;;;;;;;2.25;1.90;;;;;;;-2.44;85.41;100505.91;5094552;28;20100;-73
2021/12/26 06:36:32;;;;;;;0.73;0.73;;;;;;;-2.47;85.76;100507.72;5093252;28;20048;-74
2021/12/26 06:38:59;;;;;;;1.42;0.90;;;;;;;-2.52;85.08;100502.72;5086351;28;20048;-69
2021/12/26 06:41:27;;;;;;;2.15;1.00;;;;;;;-2.48;85.57;100506.88;5089247;28;20051;-71
2021/12/26 06:43:54;;;;;;;1.95;1.50;;;;;;;-2.39;85.08;100501.47;5061539;28;20043;-71
2021/12/26 06:46:20;;;;;;;0.75;0.70;;;;;;;-2.37;84.48;100504.81;5073686;28;20063;-73
2021/12/26 06:48:48;;;;;;;1.55;1.45;;;;;;;-2.34;84.42;100499.59;5078633;28;20078;-71
2021/12/26 06:51:14;;;;;;;1.90;1.70;;;;;;;-2.31;85.22;100496.91;5071002;28;20043;-72
2021/12/26 06:53:41;;;;;;;2.67;1.10;;;;;;;-2.27;84.84;100501.09;5080019;28;20093;-73
2021/12/26 06:56:08;;;;;;;0.60;0.60;;;;;;;-2.23;84.85;100506.09;5076104;28;20039;-72
2021/12/26 07:01:16;;;;;;;0.50;0.50;;;;;;;-2.07;84.14;100502.13;5063154;27;20392;-72
2021/12/26 07:03:42;;;;;;;2.67;1.38;;;;;;;-2.03;84.25;100508.84;5051734;28;20045;-74
2021/12/26 07:06:10;;;;;;;1.15;0.98;;;;;;;-1.88;84.02;100510.94;5048515;28;20044;-73
2021/12/26 07:08:38;;;;;;;1.17;0.80;;;;;;;-1.82;83.47;100503.03;5047344;28;20057;-73
2021/12/26 07:11:05;;;;;;;1.15;0.95;;;;;;;-1.71;82.99;100502.66;5047981;28;20037;-73
2021/12/26 07:15:56;;;;;;;4.15;1.52;;;;;;;-1.60;83.07;100514.28;5094219;27;20944;-73
2021/12/26 07:18:23;;;;;;;1.05;0.95;;;;;;;-1.57;82.59;100499.56;5092045;28;20058;-74
2021/12/26 07:20:49;;;;;;;3.65;1.98;;;;;;;-1.54;82.95;100507.19;5096997;28;20179;-75
2021/12/26 07:23:16;;;;;;;1.45;1.05;;;;;;;-1.51;82.78;100507.06;5095691;28;20039;-75
2021/12/26 07:25:43;;;;;;;2.92;2.15;;;;;;;-1.47;82.86;100511.25;5093419;28;20058;-73
2021/12/26 07:28:10;;;;;;;3.78;1.75;;;;;;;-1.47;82.64;100506.09;5093944;28;20127;-74
2021/12/26 07:33:01;;;;;;;0.90;0.70;;;;;;;-1.40;81.93;100504.97;5109064;27;20359;-72
2021/12/26 07:35:48;;;;;;;5.22;1.50;;;;;;;-1.37;81.56;100499.72;5090772;28;20055;-74
2021/12/26 07:38:15;;;;;;;2.10;1.77;;;;;;;-1.38;82.81;100499.75;5103978;28;20042;-73
2021/12/26 07:40:48;;;;;;;2.47;1.80;;;;;;;-1.34;82.38;100499.59;5099318;28;20115;-74
2021/12/26 07:43:16;;;;;;;1.02;0.98;;;;;;;-1.29;81.91;100504.59;5096260;28;20043;-74
2021/12/26 07:45:42;;;;;;;0.95;0.88;;;;;;;-1.26;82.06;100497.59;5102495;28;20043;-72
2021/12/26 07:48:10;;;;;;;1.13;0.77;;;;;;;-1.21;81.15;100490.56;5096646;28;20056;-72
2021/12/26 07:50:37;;;;;;;1.50;1.17;;;;;;;-1.20;81.00;100499.97;5108266;28;20064;-73
2021/12/26 07:53:07;;;;;;;1.77;1.42;;;;;;;-1.18;81.96;100498.16;5094867;28;20037;-73
2021/12/26 07:55:34;;;;;;;1.17;1.08;;;;;;;-1.17;81.84;100502.44;5086257;28;20051;-74
2021/12/26 07:58:01;;;;;;;1.67;1.52;;;;;;;-1.16;82.66;100498.13;5083327;28;20052;-72
2021/12/26 08:00:27;;;;;;;2.83;1.83;;;;;;;-1.13;82.49;100498.88;5080214;28;20047;-73
2021/12/26 08:02:54;;;;;;;1.27;0.90;;;;;;;-1.09;82.47;100486.69;5089770;28;20176;-73
2021/12/26 08:05:23;;;;;;;3.85;1.85;;;;;;;-1.03;82.46;100489.91;5076881;28;20048;-74
2021/12/26 08:07:50;;;;;;;4.53;1.48;;;;;;;-0.96;82.45;100496.50;5094009;28;20036;-73
2021/12/26 08:10:16;;;;;;;3.85;1.42;;;;;;;-0.89;82.24;100490.22;5080178;28;20117;-73
2021/12/26 08:12:43;;;;;;;1.15;0.80;;;;;;;-0.82;81.40;100494.25;5088207;28;20039;-71
2021/12/26 08:15:10;;;;;;;2.47;1.30;;;;;;;-0.76;82.21;100496.59;5083859;28;20116;-71
2021/12/26 08:17:38;;;;;;;1.08;0.90;;;;;;;-0.76;81.48;100486.28;5089107;28;20042;-73
2021/12/26 08:20:06;;;;;;;1.88;1.55;;;;;;;-0.72;82.19;100495.59;5069959;28;20055;-73
2021/12/26 08:22:34;;;;;;;1.30;0.68;;;;;;;-0.66;81.16;100500.53;5087271;28;20040;-72
2021/12/26 08:25:01;;;;;;;1.67;1.00;;;;;;;-0.61;80.69;100496.03;5085373;28;20112;-71
2021/12/26 08:27:28;;;;;;;2.70;2.08;;;;;;;-0.55;80.19;100488.06;5083909;28;20075;-74
2021/12/26 08:29:55;;;;;;;1.25;1.05;;;;;;;-0.47;80.52;100491.19;5089660;28;20040;-72
2021/12/26 08:32:21;;;;;;;1.75;1.50;;;;;;;-0.41;80.27;100485.78;5084135;28;21165;-72
2021/12/26 08:34:48;;;;;;;3.63;1.88;;;;;;;-0.35;81.28;100483.81;5083286;28;20044;-72
2021/12/26 08:37:15;;;;;;;1.38;1.02;;;;;;;-0.23;80.05;100487.66;5066119;28;20051;-76
2021/12/26 08:39:44;;;;;;;1.75;0.93;;;;;;;-0.21;79.81;100486.69;5087525;28;20054;-72
2021/12/26 08:42:13;;;;;;;0.70;0.60;;;;;;;-0.27;79.66;100498.97;5081337;28;20044;-75
2021/12/26 08:47:09;;;;;;;8.55;1.13;;;;;;;-0.50;81.36;100496.47;5157711;27;20401;-75
2021/12/26 08:49:38;;;;;;;0.80;0.73;;;;;;;-0.58;81.77;100480.44;5155211;27;20050;-73
2021/12/26 08:52:06;;;;;;;5.10;1.60;;;;;;;-0.50;81.98;100502.47;5159320;27;20040;-73
2021/12/26 08:54:33;;;;;;;1.42;1.05;;;;;;;-0.39;80.92;100504.63;5154024;27;20057;-74
2021/12/26 08:57:00;;;;;;;1.38;1.13;;;;;;;-0.27;80.95;100501.56;5164731;27;20049;-74
2021/12/26 08:59:30;;;;;;;2.40;1.42;;;;;;;-0.13;80.26;100501.88;5157486;27;20106;-72
2021/12/26 09:01:58;;;;;;;3.40;2.08;;;;;;;0.02;80.75;100491.75;5162184;27;20137;-73
2021/12/26 09:04:26;;;;;;;2.35;1.35;;;;;;;0.08;79.54;100489.78;5150331;27;20384;-74
2021/12/26 09:06:52;;;;;;;5.05;2.10;;;;;;;0.12;79.00;100487.91;5160221;27;20031;-73
2021/12/26 09:09:20;;;;;;;1.42;1.27;;;;;;;0.19;79.49;100495.34;5153143;27;20045;-73
2021/12/26 09:11:47;;;;;;;3.22;1.80;;;;;;;0.26;79.11;100496.78;5160203;27;20046;-72
2021/12/26 09:14:14;;;;;;;1.38;1.17;;;;;;;0.29;78.47;100496.63;5152163;27;20046;-72
2021/12/26 09:16:43;;;;;;;2.78;2.55;;;;;;;0.31;79.11;100494.84;5150179;27;20045;-73
2021/12/26 09:19:10;;;;;;;1.02;0.93;;;;;;;0.35;78.90;100480.91;5153536;27;20042;-72
2021/12/26 09:21:38;;;;;;;3.08;2.15;;;;;;;0.47;78.30;100495.03;5153393;27;20042;-73
2021/12/26 09:24:06;;;;;;;1.30;1.02;;;;;;;0.52;78.48;100493.94;5155771;27;20034;-71
2021/12/26 09:26:32;;;;;;;9.52;1.60;;;;;;;0.61;78.81;100484.94;5153996;27;20125;-72
2021/12/26 09:29:05;;;;;;;1.85;1.42;;;;;;;0.60;78.78;100486.72;5150753;27;20045;-72
2021/12/26 09:31:31;;;;;;;;;;;;;;;0.66;77.92;100491.59;5157643;27;20039;-72
2021/12/26 09:34:12;;;;;;;1.63;1.42;;;;;;;0.71;78.20;100481.91;5153664;27;19942;-73
2021/12/26 09:36:40;;;;;;;1.48;1.17;;;;;;;0.64;79.01;100487.41;5157476;27;20034;-74
2021/12/26 09:39:08;;;;;;;1.88;0.95;;;;;;;0.76;79.46;100485.16;5158333;27;20156;-73
2021/12/26 09:41:35;;;;;;;1.40;1.30;;;;;;;0.77;78.35;100484.25;5164107;27;20050;-72
2021/12/26 09:44:02;;;;;;;2.78;1.33;;;;;;;0.84;78.14;100485.66;5155241;27;20138;-75
2021/12/26 09:46:30;;;;;;;2.20;1.85;;;;;;;0.79;78.47;100479.81;5146077;27;20047;-73
2021/12/26 09:48:57;;;;;;;0.75;0.55;;;;;;;0.85;78.96;100480.41;5153340;27;20046;-73
2021/12/26 09:51:25;;;;;;;3.60;2.05;;;;;;;0.97;78.69;100481.59;5158891;27;20049;-76
2021/12/26 09:53:53;;;;;;;1.27;1.10;;;;;;;0.93;78.14;100483.47;5155053;27;20646;-76
2021/12/26 09:56:21;;;;;;;1.95;1.38;;;;;;;0.95;78.46;100491.16;5151837;27;20045;-73
2021/12/26 09:58:53;;;;;;;2.45;1.35;;;;;;;0.91;79.25;100487.06;5147115;27;20057;-73
2021/12/26 10:01:29;;;;;;;2.85;1.58;;;;;;;1.01;78.58;100477.97;5125734;27;20548;-72
2021/12/26 10:06:35;;;;;;;6.00;2.63;;;;;;;1.19;78.59;100482.34;5080733;27;20361;-74
2021/12/26 10:09:05;;;;;;;3.95;2.30;;;;;;;1.20;79.62;100478.81;5056460;28;20044;-74
2021/12/26 10:11:48;;;;;;;2.38;1.67;;;;;;;1.25;79.09;100464.78;5086064;28;20044;-73
2021/12/26 10:14:16;;;;;;;2.65;1.95;;;;;;;1.36;79.72;100464.25;5058652;28;20079;-75
2021/12/26 10:16:51;;;;;;;4.90;1.60;;;;;;;1.47;77.94;100468.06;5059672;28;20089;-73
2021/12/26 10:19:18;;;;;;;10.02;1.83;;;;;;;1.49;79.03;100466.22;5063950;28;20132;-74
2021/12/26 10:21:48;;;;;;;1.95;1.27;;;;;;;1.54;79.15;100459.09;5062668;28;20093;-73
2021/12/26 10:24:17;;;;;;;2.05;1.35;;;;;;;1.69;79.13;100454.00;5069919;28;20135;-75
2021/12/26 10:26:47;;;;;;;1.95;1.10;;;;;;;1.66;77.89;100453.31;5064065;28;20029;-73
2021/12/26 10:29:27;;;;;;;2.25;1.52;;;;;;;1.58;78.52;100446.84;5056775;28;20074;-73
2021/12/26 10:32:06;;;;;;;1.63;1.42;;;;;;;1.58;78.99;100444.25;5054109;28;20045;-74
2021/12/26 10:34:37;;;;;;;3.15;1.50;;;;;;;1.63;79.04;100437.97;5051216;28;20076;-76
2021/12/26 10:37:08;;;;;;;3.90;1.60;;;;;;;1.62;78.74;100428.50;5054919;28;20061;-72
2021/12/26 10:39:38;;;;;;;3.92;1.92;;;;;;;1.56;79.08;100431.38;5073874;28;20120;-73
2021/12/26 10:42:07;;;;;;;3.25;2.63;;;;;;;1.55;79.08;100421.09;5072475;28;20037;-73
2021/12/26 10:44:36;;;;;;;2.38;1.73;;;;;;;1.62;79.90;100426.75;5072294;28;20048;-72
2021/12/26 10:47:06;;;;;;;1.40;1.30;;;;;;;1.83;79.39;100414.50;5070305;28;20087;-74
2021/12/26 10:49:39;;;;;;;2.63;1.67;;;;;;;1.97;78.48;100423.28;5072904;28;20028;-73
2021/12/26 10:52:17;;;;;;;3.10;2.08;;;;;;;1.92;78.65;100419.25;5072208;28;20044;-71
2021/12/26 10:54:49;;;;;;;2.55;1.65;;;;;;;2.03;78.90;100422.97;5072059;28;20051;-74
2021/12/26 10:57:20;;;;;;;2.40;1.65;;;;;;;2.11;78.28;100410.47;5073408;28;20052;-74
2021/12/26 10:59:49;;;;;;;1.92;1.45;;;;;;;1.99;79.02;100405.94;5078692;28;20131;-75
2021/12/26 11:02:25;;;;;;;1.30;1.20;;;;;;;1.98;79.72;100399.06;5077147;28;20127;-74
2021/12/26 11:05:00;;;;;;;3.47;1.95;;;;;;;2.21;79.94;100398.75;5078390;28;20044;-71
2021/12/26 11:07:31;;;;;;;3.22;1.85;;;;;;;2.27;78.42;100395.00;5071836;28;20052;-70
2021/12/26 11:10:03;;;;;;;3.67;1.80;;;;;;;2.33;78.55;100395.53;5074920;28;20036;-74
2021/12/26 11:12:38;;;;;;;5.47;2.10;;;;;;;2.28;79.61;100392.34;5085368;28;20055;-74
2021/12/26 11:15:05;;;;;;;1.73;1.45;;;;;;;2.23;79.93;100389.16;5080349;28;20134;-74
2021/12/26 11:17:35;;;;;;;6.75;2.28;;;;;;;2.21;79.57;100385.78;5064419;28;20045;-74
2021/12/26 11:20:02;;;;;;;4.57;2.08;;;;;;;2.41;80.03;100393.41;5049404;28;20055;-74
2021/12/26 11:22:30;;;;;;;6.20;3.05;;;;;;;2.52;79.66;100381.56;5069249;28;20040;-73
2021/12/26 11:24:58;;;;;;;2.58;1.98;;;;;;;2.39;79.55;100379.69;5066714;28;20049;-72
2021/12/26 11:27:27;;;;;;;3.28;2.00;;;;;;;2.54;80.67;100381.47;5068521;28;20047;-72
2021/12/26 11:29:53;;;;;;;6.70;2.00;;;;;;;2.69;79.88;100372.88;5071931;28;20046;-73
2021/12/26 11:32:21;;;;;;;3.58;2.05;;;;;;;2.82;79.48;100371.31;5048273;28;20639;-73
2021/12/26 11:34:50;;;;;;;6.22;3.60;;;;;;;2.93;79.50;100362.03;5080258;28;20044;-74
2021/12/26 11:37:18;;;;;;;2.95;2.28;;;;;;;2.87;78.92;100367.56;5061921;28;20040;-72
2021/12/26 11:39:46;;;;;;;3.72;1.52;;;;;;;2.82;79.83;100368.72;5063740;28;20047;-73
2021/12/26 11:42:38;;;;;;;4.57;1.63;;;;;;;2.66;80.71;100363.50;5063874;28;20042;-72
2021/12/26 11:45:11;;;;;;;3.58;2.50;;;;;;;2.88;80.35;100360.59;5061746;28;20143;-73
2021/12/26 11:48:24;;;;;;;4.38;1.65;;;;;;;3.02;79.77;100366.72;5072773;28;20072;-72
2021/12/26 11:50:55;;;;;;;;;;;;;;;2.88;80.50;100360.59;5045531;28;20060;-72
2021/12/26 11:53:33;;;;;;;1.27;1.15;;;;;;;2.72;81.62;100370.94;5060856;28;19925;-73
2021/12/26 11:56:12;;;;;;;2.83;2.05;;;;;;;2.86;81.20;100371.06;5061473;28;20127;-73
2021/12/26 11:58:47;;;;;;;1.55;1.25;;;;;;;2.84;81.33;100370.31;5060944;28;20045;-72